createdAt,value
2022-12-01T00:48:01.891Z,99758.49
2022-12-01T00:50:29.854Z,99761.52
2022-12-01T00:52:57.887Z,99763.66
2022-12-01T00:55:26.890Z,99765.30
2022-12-01T00:57:55.113Z,99770.73
2022-12-01T01:00:23.858Z,99765.19
2022-12-01T01:02:51.791Z,99764.09
2022-12-01T01:05:19.448Z,99764.02
2022-12-01T01:07:47.125Z,99761.20
2022-12-01T01:10:14.938Z,99765.23
2022-12-01T01:12:42.497Z,99768.60
2022-12-01T01:15:10.544Z,99767.17
2022-12-01T01:17:38.221Z,99775.19
2022-12-01T01:20:07.127Z,99770.34
2022-12-01T01:22:36.622Z,99774.37
2022-12-01T01:25:04.849Z,99774.27
2022-12-01T01:27:34.616Z,99773.64
2022-12-01T01:30:02.549Z,99770.13
2022-12-01T01:32:30.346Z,99767.83
2022-12-01T01:34:58.292Z,99770.48
2022-12-01T01:37:26.231Z,99773.23
2022-12-01T01:39:54.117Z,99775.88
2022-12-01T01:42:22.676Z,99779.41
2022-12-01T01:45:00.115Z,99782.04
2022-12-01T01:47:35.586Z,99788.98
2022-12-01T01:50:09.474Z,99790.38
2022-12-01T01:52:42.137Z,99793.84
2022-12-01T01:55:10.198Z,99791.11
2022-12-01T01:57:39.509Z,99796.77
2022-12-01T02:00:10.820Z,99804.65
2022-12-01T02:02:48.373Z,99807.57
2022-12-01T02:05:21.472Z,99808.23
2022-12-01T02:07:51.178Z,99804.10
2022-12-01T02:10:29.117Z,99801.54
2022-12-01T02:13:26.318Z,99803.90
2022-12-01T02:16:19.659Z,99802.17
2022-12-01T02:19:28.255Z,99804.24
2022-12-01T02:22:11.841Z,99805.67
2022-12-01T02:25:09.122Z,99804.70
2022-12-01T02:27:59.090Z,99804.91
2022-12-01T02:30:36.130Z,99804.06
2022-12-01T02:33:29.883Z,99803.89
2022-12-01T02:39:18.549Z,99797.02
2022-12-01T02:41:53.564Z,99797.83
2022-12-01T02:44:30.471Z,99795.52
2022-12-01T02:47:04.509Z,99797.02
2022-12-01T02:49:39.242Z,99798.19
2022-12-01T02:54:59.608Z,99795.42
2022-12-01T02:57:30.572Z,99789.59
2022-12-01T02:59:59.273Z,99791.31
2022-12-01T03:02:42.881Z,99796.31
2022-12-01T03:05:40.388Z,99804.20
2022-12-01T03:08:27.947Z,99804.89
2022-12-01T03:10:58.402Z,99799.25
2022-12-01T03:13:37.707Z,99809.45
2022-12-01T03:16:26.704Z,99812.51
2022-12-01T03:19:37.627Z,99811.92
2022-12-01T03:22:37.308Z,99808.85
2022-12-01T03:25:06.342Z,99808.79
2022-12-01T03:27:38.575Z,99808.73
2022-12-01T03:30:11.378Z,99815.23
2022-12-01T03:32:48.614Z,99816.23
2022-12-01T03:35:19.116Z,99821.98
2022-12-01T03:37:54.923Z,99827.02
2022-12-01T03:40:27.688Z,99834.14
2022-12-01T03:43:02.773Z,99834.55
2022-12-01T03:45:42.168Z,99841.30
2022-12-01T03:48:13.648Z,99845.15
2022-12-01T03:50:57.647Z,99845.12
2022-12-01T03:53:32.139Z,99845.73
2022-12-01T03:56:05.848Z,99844.36
2022-12-01T03:58:41.547Z,99845.23
2022-12-01T04:01:10.203Z,99842.82
2022-12-01T04:03:37.992Z,99841.64
2022-12-01T04:06:11.094Z,99841.86
2022-12-01T04:08:43.042Z,99843.80
2022-12-01T04:11:32.640Z,99848.48
2022-12-01T04:14:00.929Z,99852.83
2022-12-01T04:16:29.118Z,99855.25
2022-12-01T04:18:57.051Z,99854.18
2022-12-01T04:21:24.749Z,99856.80
2022-12-01T04:24:01.429Z,99858.66
2022-12-01T04:26:31.508Z,99868.95
2022-12-01T04:29:11.251Z,99871.53
2022-12-01T04:31:39.592Z,99880.10
2022-12-01T04:34:07.685Z,99881.66
2022-12-01T04:36:36.458Z,99886.04
2022-12-01T04:39:04.535Z,99889.04
2022-12-01T04:41:32.274Z,99892.17
2022-12-01T04:44:00.098Z,99892.05
2022-12-01T04:46:30.604Z,99886.77
2022-12-01T04:48:58.406Z,99886.58
2022-12-01T04:51:26.173Z,99882.28
2022-12-01T04:53:53.904Z,99881.58
2022-12-01T04:56:21.842Z,99886.06
2022-12-01T04:58:50.132Z,99885.31
2022-12-01T05:01:21.757Z,99892.44
2022-12-01T05:03:53.095Z,99898.90
2022-12-01T05:06:24.109Z,99904.46
2022-12-01T05:08:55.484Z,99901.27
2022-12-01T05:11:24.071Z,99899.08
2022-12-01T05:13:52.421Z,99896.54
2022-12-01T05:16:21.687Z,99894.15
2022-12-01T05:19:11.172Z,99893.33
2022-12-01T05:21:39.133Z,99893.23
2022-12-01T05:24:07.940Z,99892.20
2022-12-01T05:26:36.241Z,99892.92
2022-12-01T05:29:04.592Z,99891.40
2022-12-01T05:31:32.862Z,99886.23
2022-12-01T05:34:03.670Z,99884.63
2022-12-01T05:36:31.969Z,99884.04
2022-12-01T05:38:59.716Z,99890.84
2022-12-01T05:41:27.501Z,99889.42
2022-12-01T05:43:55.267Z,99892.04
2022-12-01T05:46:23.330Z,99888.46
2022-12-01T05:48:51.312Z,99889.17
2022-12-01T05:51:19.159Z,99886.50
2022-12-01T05:53:46.943Z,99890.02
2022-12-01T05:56:14.973Z,99886.40
2022-12-01T05:58:42.831Z,99881.36
2022-12-01T06:01:11.210Z,99876.44
2022-12-01T06:03:42.334Z,99877.16
2022-12-01T06:06:10.125Z,99874.55
2022-12-01T06:08:38.150Z,99872.13
2022-12-01T06:11:06.513Z,99875.95
2022-12-01T06:13:34.677Z,99881.75
2022-12-01T06:16:05.922Z,99885.05
2022-12-01T06:18:36.963Z,99890.39
2022-12-01T06:21:06.894Z,99890.15
2022-12-01T06:23:38.278Z,99889.52
2022-12-01T06:26:06.207Z,99888.17
2022-12-01T06:28:33.903Z,99890.11
2022-12-01T06:31:04.996Z,99887.83
2022-12-01T06:33:33.170Z,99886.88
2022-12-01T06:36:02.109Z,99891.56
2022-12-01T06:38:38.434Z,99892.58
2022-12-01T06:41:06.511Z,99890.70
2022-12-01T06:43:39.784Z,99892.45
2022-12-01T06:46:10.616Z,99889.34
2022-12-01T06:48:38.495Z,99892.80
2022-12-01T06:51:06.246Z,99894.21
2022-12-01T06:53:34.326Z,99896.47
2022-12-01T06:56:03.781Z,99893.21
2022-12-01T06:58:31.992Z,99899.18
2022-12-01T07:01:00.267Z,99904.08
2022-12-01T07:03:28.558Z,99907.98
2022-12-01T07:06:01.024Z,99913.21
2022-12-01T07:08:29.612Z,99915.05
2022-12-01T07:11:05.063Z,99915.73
2022-12-01T07:13:34.020Z,99916.96
2022-12-01T07:16:07.412Z,99910.10
2022-12-01T07:18:40.465Z,99907.80
2022-12-01T07:21:15.796Z,99912.79
2022-12-01T07:23:43.998Z,99912.52
2022-12-01T07:26:14.890Z,99916.43
2022-12-01T07:28:43.385Z,99916.91
2022-12-01T07:31:16.968Z,99914.14
2022-12-01T07:33:44.886Z,99913.20
2022-12-01T07:36:13.992Z,99907.85
2022-12-01T07:38:42.931Z,99903.17
2022-12-01T07:41:18.930Z,99908.46
2022-12-01T07:43:49.950Z,99908.44
2022-12-01T07:46:24.183Z,99912.76
2022-12-01T07:48:53.693Z,99911.36
2022-12-01T07:51:22.801Z,99918.00
2022-12-01T07:53:52.312Z,99920.85
2022-12-01T07:56:22.814Z,99922.73
2022-12-01T07:58:50.573Z,99924.20
2022-12-01T08:01:23.170Z,99927.11
2022-12-01T08:03:52.852Z,99925.02
2022-12-01T08:06:24.383Z,99922.15
2022-12-01T08:08:53.115Z,99921.67
2022-12-01T08:11:26.222Z,99923.92
2022-12-01T08:13:54.471Z,99923.41
2022-12-01T08:16:27.318Z,99919.63
2022-12-01T08:18:55.451Z,99918.64
2022-12-01T08:21:24.745Z,99920.02
2022-12-01T08:23:57.758Z,99920.66
2022-12-01T08:26:27.198Z,99916.25
2022-12-01T08:28:54.918Z,99915.21
2022-12-01T08:31:31.615Z,99913.41
2022-12-01T08:33:59.867Z,99909.23
2022-12-01T08:36:27.577Z,99907.95
2022-12-01T08:38:56.778Z,99904.14
2022-12-01T08:41:25.517Z,99900.52
2022-12-01T08:43:58.255Z,99896.77
2022-12-01T08:46:33.457Z,99898.73
2022-12-01T08:49:03.652Z,99896.95
2022-12-01T08:51:32.044Z,99898.52
2022-12-01T08:54:00.636Z,99897.31
2022-12-01T08:56:35.796Z,99895.88
2022-12-01T08:59:07.025Z,99890.80
2022-12-01T09:01:36.893Z,99892.99
2022-12-01T09:04:10.340Z,99895.11
2022-12-01T09:06:46.548Z,99899.58
2022-12-01T09:09:20.127Z,99898.24
2022-12-01T09:11:48.801Z,99898.08
2022-12-01T09:14:18.651Z,99898.92
2022-12-01T09:16:48.190Z,99896.52
2022-12-01T09:19:22.225Z,99899.55
2022-12-01T09:21:56.005Z,99901.25
2022-12-01T09:24:24.125Z,99902.63
2022-12-01T09:26:55.210Z,99904.52
2022-12-01T09:29:23.481Z,99910.54
2022-12-01T09:31:51.698Z,99909.41
2022-12-01T09:34:21.077Z,99912.94
2022-12-01T09:36:49.367Z,99910.27
2022-12-01T09:39:19.675Z,99908.80
2022-12-01T09:41:49.194Z,99911.09
2022-12-01T09:44:42.814Z,99909.91
2022-12-01T09:47:32.451Z,99908.58
2022-12-01T09:50:05.172Z,99906.81
2022-12-01T09:52:43.088Z,99907.27
2022-12-01T09:55:16.451Z,99905.95
2022-12-01T09:57:47.366Z,99907.17
2022-12-01T10:00:25.139Z,99909.36
2022-12-01T10:03:14.474Z,99911.63
2022-12-01T10:09:34.189Z,99913.16
2022-12-01T10:12:23.068Z,99914.55
2022-12-01T10:14:52.254Z,99911.41
2022-12-01T10:17:22.916Z,99912.29
2022-12-01T10:20:09.588Z,99913.90
2022-12-01T10:23:28.812Z,99919.64
2022-12-01T10:25:58.350Z,99920.64
2022-12-01T10:29:22.032Z,99918.73
2022-12-01T10:31:54.908Z,99920.70
2022-12-01T10:34:49.190Z,99919.83
2022-12-01T10:37:22.073Z,99916.96
2022-12-01T10:39:53.036Z,99914.46
2022-12-01T10:42:49.842Z,99916.42
2022-12-01T10:45:25.690Z,99918.77
2022-12-01T10:48:18.101Z,99917.05
2022-12-01T10:50:47.300Z,99919.52
2022-12-01T10:53:26.931Z,99923.32
2022-12-01T10:56:12.586Z,99921.27
2022-12-01T10:58:57.786Z,99920.96
2022-12-01T11:01:27.001Z,99924.63
2022-12-01T11:04:03.917Z,99922.79
2022-12-01T11:06:33.324Z,99926.13
2022-12-01T11:09:07.412Z,99925.21
2022-12-01T11:11:43.556Z,99924.56
2022-12-01T11:14:29.820Z,99927.61
2022-12-01T11:16:57.730Z,99927.25
2022-12-01T11:19:34.597Z,99924.02
2022-12-01T11:22:19.578Z,99926.45
2022-12-01T11:25:04.768Z,99924.77
2022-12-01T11:27:37.348Z,99929.09
2022-12-01T11:30:20.986Z,99927.20
2022-12-01T11:33:03.759Z,99925.95
2022-12-01T11:35:35.992Z,99928.84
2022-12-01T11:38:29.212Z,99922.54
2022-12-01T11:40:59.045Z,99923.69
2022-12-01T11:43:29.429Z,99927.02
2022-12-01T11:46:01.389Z,99928.36
2022-12-01T11:48:37.692Z,99930.70
2022-12-01T11:51:38.502Z,99927.77
2022-12-01T11:54:15.158Z,99927.20
2022-12-01T11:56:45.791Z,99927.62
2022-12-01T11:59:17.174Z,99928.95
2022-12-01T12:01:57.599Z,99923.89
2022-12-01T12:04:48.858Z,99930.98
2022-12-01T12:07:48.187Z,99928.98
2022-12-01T12:10:40.142Z,99928.13
2022-12-01T12:13:17.670Z,99927.80
2022-12-01T12:18:36.562Z,99934.05
2022-12-01T12:21:12.800Z,99933.06
2022-12-01T12:23:55.527Z,99935.42
2022-12-01T12:26:27.727Z,99937.17
2022-12-01T12:29:23.151Z,99933.41
2022-12-01T12:32:22.657Z,99933.30
2022-12-01T12:35:41.751Z,99942.95
2022-12-01T12:38:46.655Z,99946.06
2022-12-01T12:41:46.702Z,99946.41
2022-12-01T12:44:37.053Z,99951.75
2022-12-01T12:47:26.577Z,99956.17
2022-12-01T12:50:06.387Z,99963.38
2022-12-01T12:52:43.687Z,99964.25
2022-12-01T12:55:26.725Z,99970.02
2022-12-01T12:58:07.966Z,99970.16
2022-12-01T13:00:44.825Z,99974.45
2022-12-01T13:03:38.667Z,99976.02
2022-12-01T13:06:20.251Z,99983.98
2022-12-01T13:08:58.071Z,99986.41
2022-12-01T13:11:44.732Z,99990.61
2022-12-01T13:14:30.339Z,99998.02
2022-12-01T13:17:27.650Z,99995.30
2022-12-01T13:19:55.576Z,99998.47
2022-12-01T13:22:31.156Z,100002.27
2022-12-01T13:24:59.019Z,100006.59
2022-12-01T13:27:36.399Z,100008.39
2022-12-01T13:30:04.723Z,100012.40
2022-12-01T13:32:42.746Z,100019.83
2022-12-01T13:35:27.069Z,100023.64
2022-12-01T13:38:14.986Z,100031.39
2022-12-01T13:40:42.747Z,100033.49
2022-12-01T13:43:22.469Z,100040.94
2022-12-01T13:45:51.103Z,100043.98
2022-12-01T13:48:52.539Z,100049.52
2022-12-01T13:51:20.232Z,100053.55
2022-12-01T13:54:35.957Z,100055.70
2022-12-01T13:57:11.555Z,100062.10
2022-12-01T13:59:59.066Z,100068.00
2022-12-01T14:02:29.490Z,100071.76
2022-12-01T14:05:23.479Z,100073.73
2022-12-01T14:07:53.059Z,100075.23
2022-12-01T14:10:32.517Z,100079.96
2022-12-01T14:13:04.780Z,100087.06
2022-12-01T14:15:46.221Z,100092.59
2022-12-01T14:18:30.716Z,100098.87
2022-12-01T14:20:58.735Z,100104.54
2022-12-01T14:23:35.566Z,100107.84
2022-12-01T14:26:10.970Z,100116.62
2022-12-01T14:28:59.007Z,100121.83
2022-12-01T14:31:36.197Z,100127.16
2022-12-01T14:34:19.131Z,100134.42
2022-12-01T14:36:57.063Z,100136.02
2022-12-01T14:39:29.161Z,100141.54
2022-12-01T14:42:01.414Z,100151.05
2022-12-01T14:44:58.811Z,100151.52
2022-12-01T14:47:57.075Z,100154.41
2022-12-01T14:50:44.997Z,100156.36
2022-12-01T14:53:24.124Z,100158.31
2022-12-01T14:56:16.403Z,100151.45
2022-12-01T14:59:01.019Z,100159.45
2022-12-01T15:01:38.362Z,100159.30
2022-12-01T15:04:07.856Z,100165.19
2022-12-01T15:06:38.281Z,100165.85
2022-12-01T15:09:32.007Z,100163.98
2022-12-01T15:12:05.012Z,100162.59
2022-12-01T15:14:35.366Z,100169.27
2022-12-01T15:17:05.997Z,100170.52
2022-12-01T15:19:42.109Z,100176.61
2022-12-01T15:22:15.583Z,100176.67
2022-12-01T15:24:44.461Z,100179.02
2022-12-01T15:27:31.669Z,100181.02
2022-12-01T15:30:05.143Z,100184.83
2022-12-01T15:32:38.532Z,100188.93
2022-12-01T15:37:46.807Z,100193.95
2022-12-01T15:43:23.896Z,100205.18
2022-12-01T15:45:55.631Z,100214.45
2022-12-01T15:48:34.611Z,100219.23
2022-12-01T15:51:17.691Z,100230.34
2022-12-01T15:53:55.084Z,100238.84
2022-12-01T15:56:37.564Z,100244.77
2022-12-01T15:59:15.289Z,100248.61
2022-12-01T16:01:44.737Z,100256.42
2022-12-01T16:04:21.288Z,100264.32
2022-12-01T16:06:57.584Z,100268.44
2022-12-01T16:09:38.232Z,100275.66
2022-12-01T16:12:18.449Z,100276.35
2022-12-01T16:14:54.267Z,100280.65
2022-12-01T16:17:23.521Z,100285.50
2022-12-01T16:20:18.483Z,100284.73
2022-12-01T16:23:01.551Z,100286.02
2022-12-01T16:28:34.866Z,100289.73
2022-12-01T16:31:08.283Z,100295.10
2022-12-01T16:33:39.613Z,100296.68
2022-12-01T16:36:07.903Z,100298.77
2022-12-01T16:38:35.864Z,100301.84
2022-12-01T16:41:25.384Z,100304.17
2022-12-01T16:44:20.237Z,100305.81
2022-12-01T16:46:41.884Z,100306.63
2022-12-01T16:49:10.069Z,100308.67
2022-12-01T16:51:54.753Z,100312.20
2022-12-01T16:54:24.117Z,100313.02
2022-12-01T16:56:52.343Z,100317.80
2022-12-01T16:59:20.716Z,100323.77
2022-12-01T17:01:48.703Z,100329.27
2022-12-01T17:04:16.849Z,100336.79
2022-12-01T17:06:45.054Z,100340.98
2022-12-01T17:09:13.477Z,100341.10
2022-12-01T17:11:41.582Z,100351.81
2022-12-01T17:14:09.705Z,100358.45
2022-12-01T17:16:38.952Z,100364.89
2022-12-01T17:19:06.954Z,100362.23
2022-12-01T17:21:34.486Z,100371.16
2022-12-01T17:24:02.563Z,100371.77
2022-12-01T17:26:30.195Z,100374.27
2022-12-01T17:28:57.810Z,100377.20
2022-12-01T17:31:26.031Z,100380.35
2022-12-01T17:33:54.027Z,100383.63
2022-12-01T17:36:22.591Z,100383.52
2022-12-01T17:38:51.274Z,100385.77
2022-12-01T17:41:25.138Z,100384.20
2022-12-01T17:43:53.223Z,100390.58
2022-12-01T17:46:21.322Z,100393.52
2022-12-01T17:48:48.992Z,100400.32
2022-12-01T17:51:17.114Z,100401.36
2022-12-01T17:53:45.709Z,100404.83
2022-12-01T17:56:16.549Z,100403.29
2022-12-01T17:58:44.359Z,100407.64
2022-12-01T18:01:16.915Z,100414.88
2022-12-01T18:03:45.162Z,100418.77
2022-12-01T18:06:13.594Z,100425.23
2022-12-01T18:08:41.748Z,100423.62
2022-12-01T18:11:15.243Z,100429.88
2022-12-01T18:13:45.128Z,100430.66
2022-12-01T18:16:19.853Z,100431.04
2022-12-01T18:18:48.646Z,100434.36
2022-12-01T18:21:19.276Z,100440.08
2022-12-01T18:23:51.143Z,100447.25
2022-12-01T18:26:20.753Z,100449.55
2022-12-01T18:28:55.952Z,100452.10
2022-12-01T18:31:24.096Z,100454.65
2022-12-01T18:33:52.610Z,100462.86
2022-12-01T18:36:25.252Z,100466.58
2022-12-01T18:38:54.841Z,100470.65
2022-12-01T18:41:22.631Z,100471.50
2022-12-01T18:43:50.437Z,100475.08
2022-12-01T18:46:19.378Z,100473.25
2022-12-01T18:48:51.853Z,100479.26
2022-12-01T18:51:20.460Z,100479.09
2022-12-01T18:53:48.252Z,100481.16
2022-12-01T18:56:17.303Z,100478.77
2022-12-01T18:58:45.343Z,100479.67
2022-12-01T19:01:26.115Z,100478.52
2022-12-01T19:03:55.908Z,100478.42
2022-12-01T19:06:24.641Z,100477.09
2022-12-01T19:08:53.565Z,100478.50
2022-12-01T19:11:22.027Z,100479.86
2022-12-01T19:13:50.092Z,100482.23
2022-12-01T19:16:20.383Z,100483.71
2022-12-01T19:18:48.452Z,100481.80
2022-12-01T19:21:19.770Z,100483.95
2022-12-01T19:23:48.242Z,100489.33
2022-12-01T19:26:21.393Z,100488.86
2022-12-01T19:28:49.851Z,100491.02
2022-12-01T19:31:20.599Z,100488.89
2022-12-01T19:33:48.992Z,100492.97
2022-12-01T19:36:20.947Z,100491.55
2022-12-01T19:38:49.352Z,100493.02
2022-12-01T19:41:20.645Z,100494.80
2022-12-01T19:43:48.884Z,100499.40
2022-12-01T19:46:20.160Z,100495.11
2022-12-01T19:48:53.691Z,100495.15
2022-12-01T19:51:24.744Z,100501.98
2022-12-01T19:53:54.082Z,100503.81
2022-12-01T19:56:22.436Z,100504.79
2022-12-01T19:58:51.073Z,100503.43
2022-12-01T20:01:20.459Z,100504.18
2022-12-01T20:03:54.597Z,100504.36
2022-12-01T20:06:30.446Z,100505.04
2022-12-01T20:09:01.062Z,100506.30
2022-12-01T20:11:35.875Z,100504.29
2022-12-01T20:14:05.886Z,100510.52
2022-12-01T20:16:34.246Z,100511.73
2022-12-01T20:19:04.087Z,100522.05
2022-12-01T20:21:35.587Z,100524.34
2022-12-01T20:24:06.934Z,100525.02
2022-12-01T20:26:49.728Z,100529.94
2022-12-01T20:29:23.160Z,100533.56
2022-12-01T20:31:52.807Z,100536.40
2022-12-01T20:34:27.971Z,100535.92
2022-12-01T20:36:56.137Z,100537.14
2022-12-01T20:39:24.909Z,100539.29
2022-12-01T20:41:53.433Z,100532.15
2022-12-01T20:44:21.903Z,100544.88
2022-12-01T20:46:49.655Z,100541.79
2022-12-01T20:49:19.260Z,100547.42
2022-12-01T20:51:47.697Z,100550.15
2022-12-01T20:54:32.975Z,100549.90
2022-12-01T20:57:01.168Z,100553.74
2022-12-01T20:59:29.860Z,100556.31
2022-12-01T21:01:57.871Z,100556.50
2022-12-01T21:04:26.263Z,100557.17
2022-12-01T21:06:58.653Z,100563.28
2022-12-01T21:09:27.508Z,100563.94
2022-12-01T21:12:17.235Z,100564.80
2022-12-01T21:15:17.259Z,100570.83
2022-12-01T21:17:50.744Z,100571.52
2022-12-01T21:20:25.404Z,100572.72
2022-12-01T21:22:53.938Z,100570.95
2022-12-01T21:25:23.706Z,100571.61
2022-12-01T21:27:52.161Z,100572.14
2022-12-01T21:30:26.045Z,100571.65
2022-12-01T21:32:59.242Z,100574.66
2022-12-01T21:35:27.230Z,100576.96
2022-12-01T21:38:03.554Z,100582.51
2022-12-01T21:40:31.869Z,100583.88
2022-12-01T21:43:12.652Z,100586.90
2022-12-01T21:45:40.607Z,100588.48
2022-12-01T21:48:23.280Z,100589.67
2022-12-01T21:51:26.175Z,100596.93
2022-12-01T21:53:56.983Z,100604.56
2022-12-01T21:56:31.915Z,100606.84
2022-12-01T21:59:32.299Z,100611.20
2022-12-01T22:02:01.816Z,100616.00
2022-12-01T22:04:31.920Z,100616.30
2022-12-01T22:07:00.188Z,100622.55
2022-12-01T22:09:32.038Z,100626.45
2022-12-01T22:12:21.903Z,100629.23
2022-12-01T22:14:50.706Z,100633.59
2022-12-01T22:17:22.536Z,100634.58
2022-12-01T22:20:00.601Z,100641.05
2022-12-01T22:22:31.041Z,100642.16
2022-12-01T22:25:23.251Z,100644.13
2022-12-01T22:27:51.756Z,100650.73
2022-12-01T22:30:22.292Z,100654.60
2022-12-01T22:32:59.824Z,100656.27
2022-12-01T22:35:49.350Z,100657.94
2022-12-01T22:38:38.634Z,100664.27
2022-12-01T22:41:15.984Z,100668.77
2022-12-01T22:43:44.896Z,100668.79
2022-12-01T22:46:23.750Z,100666.30
2022-12-01T22:49:18.086Z,100667.13
2022-12-01T22:52:05.746Z,100675.84
2022-12-01T22:54:45.745Z,100676.88
2022-12-01T22:57:37.439Z,100680.66
2022-12-01T23:00:18.132Z,100683.27
2022-12-01T23:02:48.969Z,100690.55
2022-12-01T23:05:23.418Z,100689.44
2022-12-01T23:07:52.497Z,100695.11
2022-12-01T23:10:22.418Z,100702.47
2022-12-01T23:12:53.477Z,100709.54
2022-12-01T23:15:40.653Z,100715.55
2022-12-01T23:18:20.117Z,100716.77
2022-12-01T23:20:53.601Z,100718.20
2022-12-01T23:23:26.666Z,100723.03
2022-12-01T23:25:54.786Z,100725.66
2022-12-01T23:28:23.042Z,100726.24
2022-12-01T23:30:54.632Z,100730.10
2022-12-01T23:33:30.946Z,100737.25
2022-12-01T23:36:03.476Z,100742.04
2022-12-01T23:38:40.375Z,100746.52
2022-12-01T23:41:14.368Z,100749.66
2022-12-01T23:43:46.547Z,100749.84
2022-12-01T23:46:20.926Z,100751.17
2022-12-01T23:49:00.595Z,100751.83
2022-12-01T23:51:41.158Z,100758.93
2022-12-01T23:54:33.725Z,100761.13
2022-12-01T23:57:21.880Z,100769.66
2022-12-01T23:59:53.765Z,100771.81
